sensor_id;sensor_type;location;lat;lon;timestamp;P1;durP1;ratioP1;P2;durP2;ratioP2
179;SDS011;78;48.788;9.010;2023-03-05T00:01:19;65.50;;;23.30;;
179;SDS011;78;48.788;9.010;2023-03-05T00:03:49;62.00;;;24.00;;
179;SDS011;78;48.788;9.010;2023-03-05T00:06:16;60.23;;;22.10;;
179;SDS011;78;48.788;9.010;2023-03-05T00:08:42;65.10;;;23.70;;
179;SDS011;78;48.788;9.010;2023-03-05T00:11:08;62.40;;;22.57;;
179;SDS011;78;48.788;9.010;2023-03-05T00:13:35;63.83;;;22.80;;
179;SDS011;78;48.788;9.010;2023-03-05T00:16:04;67.00;;;23.67;;
179;SDS011;78;48.788;9.010;2023-03-05T00:18:31;66.47;;;23.07;;
179;SDS011;78;48.788;9.010;2023-03-05T00:20:57;66.13;;;24.50;;
179;SDS011;78;48.788;9.010;2023-03-05T00:23:23;70.30;;;24.90;;
179;SDS011;78;48.788;9.010;2023-03-05T00:25:49;61.73;;;23.23;;
179;SDS011;78;48.788;9.010;2023-03-05T00:28:15;64.57;;;21.70;;
179;SDS011;78;48.788;9.010;2023-03-05T00:30:41;63.77;;;23.37;;
179;SDS011;78;48.788;9.010;2023-03-05T00:33:07;57.63;;;21.70;;
179;SDS011;78;48.788;9.010;2023-03-05T00:35:41;61.30;;;21.73;;
179;SDS011;78;48.788;9.010;2023-03-05T00:38:07;61.50;;;23.33;;
179;SDS011;78;48.788;9.010;2023-03-05T00:40:36;65.67;;;22.83;;
179;SDS011;78;48.788;9.010;2023-03-05T00:43:02;63.60;;;23.60;;
179;SDS011;78;48.788;9.010;2023-03-05T00:45:28;62.37;;;22.67;;
179;SDS011;78;48.788;9.010;2023-03-05T00:47:54;66.47;;;23.37;;
179;SDS011;78;48.788;9.010;2023-03-05T00:50:20;64.83;;;24.10;;
179;SDS011;78;48.788;9.010;2023-03-05T00:52:46;63.47;;;23.53;;
179;SDS011;78;48.788;9.010;2023-03-05T00:55:12;63.37;;;22.37;;
179;SDS011;78;48.788;9.010;2023-03-05T00:57:38;63.70;;;23.47;;
179;SDS011;78;48.788;9.010;2023-03-05T01:00:05;60.60;;;21.90;;
179;SDS011;78;48.788;9.010;2023-03-05T01:02:31;65.93;;;23.40;;
179;SDS011;78;48.788;9.010;2023-03-05T01:04:57;59.63;;;22.27;;
179;SDS011;78;48.788;9.010;2023-03-05T01:07:24;64.63;;;22.10;;
179;SDS011;78;48.788;9.010;2023-03-05T01:09:50;62.70;;;22.50;;
179;SDS011;78;48.788;9.010;2023-03-05T01:12:16;58.60;;;21.20;;
179;SDS011;78;48.788;9.010;2023-03-05T01:14:42;69.53;;;23.60;;
179;SDS011;78;48.788;9.010;2023-03-05T01:17:08;66.37;;;24.00;;
179;SDS011;78;48.788;9.010;2023-03-05T01:19:34;58.10;;;21.30;;
179;SDS011;78;48.788;9.010;2023-03-05T01:22:00;58.63;;;21.73;;
179;SDS011;78;48.788;9.010;2023-03-05T01:24:26;66.00;;;22.97;;
179;SDS011;78;48.788;9.010;2023-03-05T01:26:52;59.17;;;22.10;;
179;SDS011;78;48.788;9.010;2023-03-05T01:29:18;61.93;;;22.03;;
179;SDS011;78;48.788;9.010;2023-03-05T01:31:44;60.77;;;21.77;;
179;SDS011;78;48.788;9.010;2023-03-05T01:34:10;58.53;;;21.03;;
179;SDS011;78;48.788;9.010;2023-03-05T01:36:37;62.00;;;21.87;;
179;SDS011;78;48.788;9.010;2023-03-05T01:39:05;58.00;;;21.27;;
179;SDS011;78;48.788;9.010;2023-03-05T01:41:31;60.23;;;21.93;;
179;SDS011;78;48.788;9.010;2023-03-05T01:43:58;55.23;;;21.03;;
179;SDS011;78;48.788;9.010;2023-03-05T01:46:28;62.60;;;22.20;;
179;SDS011;78;48.788;9.010;2023-03-05T01:51:25;61.43;;;20.80;;
179;SDS011;78;48.788;9.010;2023-03-05T01:53:51;57.43;;;20.70;;
179;SDS011;78;48.788;9.010;2023-03-05T01:56:18;57.00;;;20.53;;
179;SDS011;78;48.788;9.010;2023-03-05T01:58:44;55.73;;;19.97;;
179;SDS011;78;48.788;9.010;2023-03-05T02:01:10;54.20;;;20.50;;
179;SDS011;78;48.788;9.010;2023-03-05T02:03:37;55.53;;;20.40;;
179;SDS011;78;48.788;9.010;2023-03-05T02:06:03;62.27;;;20.77;;
179;SDS011;78;48.788;9.010;2023-03-05T02:08:29;53.10;;;18.70;;
179;SDS011;78;48.788;9.010;2023-03-05T02:10:55;60.53;;;20.27;;
179;SDS011;78;48.788;9.010;2023-03-05T02:13:22;63.47;;;20.53;;
179;SDS011;78;48.788;9.010;2023-03-05T02:15:49;56.27;;;19.30;;
179;SDS011;78;48.788;9.010;2023-03-05T02:18:16;53.67;;;19.40;;
179;SDS011;78;48.788;9.010;2023-03-05T02:23:08;50.20;;;18.60;;
179;SDS011;78;48.788;9.010;2023-03-05T02:25:34;60.70;;;19.40;;
179;SDS011;78;48.788;9.010;2023-03-05T02:28:01;55.17;;;18.97;;
179;SDS011;78;48.788;9.010;2023-03-05T02:30:28;53.10;;;20.17;;
179;SDS011;78;48.788;9.010;2023-03-05T02:32:55;49.70;;;18.73;;
179;SDS011;78;48.788;9.010;2023-03-05T02:35:21;53.43;;;19.10;;
179;SDS011;78;48.788;9.010;2023-03-05T02:37:47;55.27;;;19.20;;
179;SDS011;78;48.788;9.010;2023-03-05T02:40:14;52.87;;;18.33;;
179;SDS011;78;48.788;9.010;2023-03-05T02:42:40;50.90;;;17.73;;
179;SDS011;78;48.788;9.010;2023-03-05T02:45:06;55.00;;;18.67;;
179;SDS011;78;48.788;9.010;2023-03-05T02:47:32;52.13;;;17.90;;
179;SDS011;78;48.788;9.010;2023-03-05T02:49:58;53.83;;;18.57;;
179;SDS011;78;48.788;9.010;2023-03-05T02:52:24;54.17;;;19.10;;
179;SDS011;78;48.788;9.010;2023-03-05T02:54:51;58.17;;;19.13;;
179;SDS011;78;48.788;9.010;2023-03-05T02:57:17;56.00;;;19.93;;
179;SDS011;78;48.788;9.010;2023-03-05T02:59:43;49.43;;;17.73;;
179;SDS011;78;48.788;9.010;2023-03-05T03:02:09;48.70;;;17.27;;
179;SDS011;78;48.788;9.010;2023-03-05T03:04:35;49.00;;;18.13;;
179;SDS011;78;48.788;9.010;2023-03-05T03:07:01;51.80;;;18.50;;
179;SDS011;78;48.788;9.010;2023-03-05T03:09:27;47.50;;;17.70;;
179;SDS011;78;48.788;9.010;2023-03-05T03:11:53;51.43;;;17.57;;
179;SDS011;78;48.788;9.010;2023-03-05T03:14:19;52.57;;;17.20;;
179;SDS011;78;48.788;9.010;2023-03-05T03:16:45;51.23;;;17.53;;
179;SDS011;78;48.788;9.010;2023-03-05T03:19:11;47.37;;;16.73;;
179;SDS011;78;48.788;9.010;2023-03-05T03:21:37;53.73;;;18.80;;
179;SDS011;78;48.788;9.010;2023-03-05T03:24:03;60.20;;;18.60;;
179;SDS011;78;48.788;9.010;2023-03-05T03:26:29;49.93;;;17.00;;
179;SDS011;78;48.788;9.010;2023-03-05T03:28:56;54.90;;;18.47;;
179;SDS011;78;48.788;9.010;2023-03-05T03:31:22;50.03;;;17.63;;
179;SDS011;78;48.788;9.010;2023-03-05T03:33:48;52.37;;;17.93;;
179;SDS011;78;48.788;9.010;2023-03-05T03:36:15;53.67;;;17.33;;
179;SDS011;78;48.788;9.010;2023-03-05T03:38:41;50.23;;;17.73;;
179;SDS011;78;48.788;9.010;2023-03-05T03:41:07;58.60;;;17.37;;
179;SDS011;78;48.788;9.010;2023-03-05T03:43:34;48.57;;;16.37;;
179;SDS011;78;48.788;9.010;2023-03-05T03:46:02;53.43;;;17.10;;
179;SDS011;78;48.788;9.010;2023-03-05T03:48:27;48.97;;;16.47;;
179;SDS011;78;48.788;9.010;2023-03-05T03:50:53;48.07;;;16.40;;
179;SDS011;78;48.788;9.010;2023-03-05T03:53:19;50.70;;;16.60;;
179;SDS011;78;48.788;9.010;2023-03-05T03:55:45;48.60;;;15.13;;
179;SDS011;78;48.788;9.010;2023-03-05T03:58:11;47.97;;;13.33;;
179;SDS011;78;48.788;9.010;2023-03-05T04:00:38;54.60;;;16.93;;
179;SDS011;78;48.788;9.010;2023-03-05T04:03:04;44.47;;;14.13;;
179;SDS011;78;48.788;9.010;2023-03-05T04:05:31;46.53;;;14.33;;
179;SDS011;78;48.788;9.010;2023-03-05T04:07:57;48.43;;;13.80;;
179;SDS011;78;48.788;9.010;2023-03-05T04:10:24;42.13;;;13.07;;
179;SDS011;78;48.788;9.010;2023-03-05T04:12:49;42.07;;;13.57;;
179;SDS011;78;48.788;9.010;2023-03-05T04:15:16;49.53;;;14.17;;
179;SDS011;78;48.788;9.010;2023-03-05T04:17:42;39.50;;;12.57;;
179;SDS011;78;48.788;9.010;2023-03-05T04:20:08;41.67;;;13.37;;
179;SDS011;78;48.788;9.010;2023-03-05T04:22:34;47.50;;;13.73;;
179;SDS011;78;48.788;9.010;2023-03-05T04:25:01;45.07;;;14.40;;
179;SDS011;78;48.788;9.010;2023-03-05T04:27:31;42.17;;;13.10;;
179;SDS011;78;48.788;9.010;2023-03-05T04:29:58;50.53;;;14.87;;
179;SDS011;78;48.788;9.010;2023-03-05T04:32:24;43.93;;;13.10;;
179;SDS011;78;48.788;9.010;2023-03-05T04:34:50;40.70;;;13.17;;
179;SDS011;78;48.788;9.010;2023-03-05T04:37:16;47.83;;;13.67;;
179;SDS011;78;48.788;9.010;2023-03-05T04:39:42;53.97;;;14.70;;
179;SDS011;78;48.788;9.010;2023-03-05T04:42:09;44.33;;;13.93;;
179;SDS011;78;48.788;9.010;2023-03-05T04:44:35;44.80;;;13.83;;
179;SDS011;78;48.788;9.010;2023-03-05T04:47:02;48.57;;;14.40;;
179;SDS011;78;48.788;9.010;2023-03-05T04:49:28;40.50;;;13.33;;
179;SDS011;78;48.788;9.010;2023-03-05T04:51:54;50.20;;;14.97;;
179;SDS011;78;48.788;9.010;2023-03-05T04:54:22;43.00;;;13.33;;
179;SDS011;78;48.788;9.010;2023-03-05T04:56:48;44.90;;;14.17;;
179;SDS011;78;48.788;9.010;2023-03-05T04:59:15;42.70;;;12.90;;
179;SDS011;78;48.788;9.010;2023-03-05T05:01:41;48.47;;;14.37;;
179;SDS011;78;48.788;9.010;2023-03-05T05:04:08;46.93;;;14.27;;
179;SDS011;78;48.788;9.010;2023-03-05T05:06:34;43.87;;;13.27;;
179;SDS011;78;48.788;9.010;2023-03-05T05:09:01;42.33;;;13.80;;
179;SDS011;78;48.788;9.010;2023-03-05T05:11:27;39.90;;;12.67;;
179;SDS011;78;48.788;9.010;2023-03-05T05:13:53;42.23;;;13.37;;
179;SDS011;78;48.788;9.010;2023-03-05T05:16:19;43.10;;;13.03;;
179;SDS011;78;48.788;9.010;2023-03-05T05:18:46;44.00;;;13.03;;
179;SDS011;78;48.788;9.010;2023-03-05T05:21:13;44.10;;;13.70;;
179;SDS011;78;48.788;9.010;2023-03-05T05:23:40;47.87;;;15.30;;
179;SDS011;78;48.788;9.010;2023-03-05T05:26:06;46.03;;;13.63;;
179;SDS011;78;48.788;9.010;2023-03-05T05:28:33;42.23;;;13.80;;
179;SDS011;78;48.788;9.010;2023-03-05T05:31:05;43.40;;;12.90;;
179;SDS011;78;48.788;9.010;2023-03-05T05:33:31;43.47;;;13.87;;
179;SDS011;78;48.788;9.010;2023-03-05T05:35:57;44.80;;;14.03;;
179;SDS011;78;48.788;9.010;2023-03-05T05:38:24;46.10;;;13.97;;
179;SDS011;78;48.788;9.010;2023-03-05T05:40:50;44.03;;;13.27;;
179;SDS011;78;48.788;9.010;2023-03-05T05:43:16;49.97;;;15.00;;
179;SDS011;78;48.788;9.010;2023-03-05T05:45:43;42.10;;;14.80;;
179;SDS011;78;48.788;9.010;2023-03-05T05:48:09;44.80;;;14.43;;
179;SDS011;78;48.788;9.010;2023-03-05T05:50:36;44.43;;;13.73;;
179;SDS011;78;48.788;9.010;2023-03-05T05:53:04;43.50;;;13.77;;
179;SDS011;78;48.788;9.010;2023-03-05T05:55:30;48.23;;;14.10;;
179;SDS011;78;48.788;9.010;2023-03-05T05:57:57;44.70;;;14.50;;
179;SDS011;78;48.788;9.010;2023-03-05T06:00:23;44.70;;;13.53;;
179;SDS011;78;48.788;9.010;2023-03-05T06:02:50;45.63;;;14.40;;
179;SDS011;78;48.788;9.010;2023-03-05T06:05:16;43.23;;;13.23;;
179;SDS011;78;48.788;9.010;2023-03-05T06:07:42;47.43;;;15.77;;
179;SDS011;78;48.788;9.010;2023-03-05T06:10:09;47.97;;;14.40;;
179;SDS011;78;48.788;9.010;2023-03-05T06:12:35;47.70;;;14.47;;
179;SDS011;78;48.788;9.010;2023-03-05T06:15:02;47.23;;;14.57;;
179;SDS011;78;48.788;9.010;2023-03-05T06:17:28;47.30;;;14.77;;
179;SDS011;78;48.788;9.010;2023-03-05T06:19:54;50.20;;;14.60;;
179;SDS011;78;48.788;9.010;2023-03-05T06:22:21;47.63;;;16.13;;
179;SDS011;78;48.788;9.010;2023-03-05T06:24:47;45.67;;;14.53;;
179;SDS011;78;48.788;9.010;2023-03-05T06:27:14;42.30;;;13.67;;
179;SDS011;78;48.788;9.010;2023-03-05T06:29:40;44.33;;;15.00;;
179;SDS011;78;48.788;9.010;2023-03-05T06:32:06;46.87;;;14.90;;
179;SDS011;78;48.788;9.010;2023-03-05T06:34:32;46.47;;;15.27;;
179;SDS011;78;48.788;9.010;2023-03-05T06:36:58;46.63;;;14.73;;
179;SDS011;78;48.788;9.010;2023-03-05T06:39:25;44.33;;;14.97;;
179;SDS011;78;48.788;9.010;2023-03-05T06:41:51;42.27;;;14.60;;
179;SDS011;78;48.788;9.010;2023-03-05T06:44:17;46.30;;;15.10;;
179;SDS011;78;48.788;9.010;2023-03-05T06:46:43;43.00;;;14.83;;
179;SDS011;78;48.788;9.010;2023-03-05T06:49:09;42.47;;;14.70;;
179;SDS011;78;48.788;9.010;2023-03-05T06:51:38;45.93;;;14.60;;
179;SDS011;78;48.788;9.010;2023-03-05T06:54:06;44.17;;;15.00;;
179;SDS011;78;48.788;9.010;2023-03-05T06:56:34;46.50;;;15.50;;
179;SDS011;78;48.788;9.010;2023-03-05T06:59:00;45.17;;;14.97;;
179;SDS011;78;48.788;9.010;2023-03-05T07:01:27;47.90;;;15.73;;
179;SDS011;78;48.788;9.010;2023-03-05T07:03:53;50.63;;;16.57;;
179;SDS011;78;48.788;9.010;2023-03-05T07:06:23;43.87;;;14.30;;
179;SDS011;78;48.788;9.010;2023-03-05T07:08:49;45.03;;;14.80;;
179;SDS011;78;48.788;9.010;2023-03-05T07:11:19;47.60;;;15.43;;
179;SDS011;78;48.788;9.010;2023-03-05T07:13:45;45.40;;;15.90;;
179;SDS011;78;48.788;9.010;2023-03-05T07:16:19;44.97;;;15.53;;
179;SDS011;78;48.788;9.010;2023-03-05T07:18:45;40.83;;;14.50;;
179;SDS011;78;48.788;9.010;2023-03-05T07:21:15;45.73;;;15.50;;
179;SDS011;78;48.788;9.010;2023-03-05T07:23:42;45.07;;;15.77;;
179;SDS011;78;48.788;9.010;2023-03-05T07:26:09;46.80;;;15.50;;
179;SDS011;78;48.788;9.010;2023-03-05T07:28:35;43.27;;;15.30;;
179;SDS011;78;48.788;9.010;2023-03-05T07:31:03;44.70;;;15.40;;
179;SDS011;78;48.788;9.010;2023-03-05T07:33:30;44.73;;;15.43;;
179;SDS011;78;48.788;9.010;2023-03-05T07:35:57;48.67;;;16.20;;
179;SDS011;78;48.788;9.010;2023-03-05T07:38:24;45.53;;;15.47;;
179;SDS011;78;48.788;9.010;2023-03-05T07:40:51;47.47;;;14.87;;
179;SDS011;78;48.788;9.010;2023-03-05T07:43:17;48.20;;;15.40;;
179;SDS011;78;48.788;9.010;2023-03-05T07:45:43;52.30;;;15.93;;
179;SDS011;78;48.788;9.010;2023-03-05T07:48:16;44.57;;;15.40;;
179;SDS011;78;48.788;9.010;2023-03-05T07:50:44;46.23;;;15.87;;
179;SDS011;78;48.788;9.010;2023-03-05T07:53:10;45.67;;;15.67;;
179;SDS011;78;48.788;9.010;2023-03-05T07:55:43;47.87;;;16.37;;
179;SDS011;78;48.788;9.010;2023-03-05T07:58:10;49.53;;;16.53;;
179;SDS011;78;48.788;9.010;2023-03-05T08:00:36;43.03;;;15.00;;
179;SDS011;78;48.788;9.010;2023-03-05T08:03:02;49.87;;;16.33;;
179;SDS011;78;48.788;9.010;2023-03-05T08:05:28;53.30;;;17.43;;
179;SDS011;78;48.788;9.010;2023-03-05T08:07:54;51.33;;;16.13;;
179;SDS011;78;48.788;9.010;2023-03-05T08:10:20;57.27;;;17.97;;
179;SDS011;78;48.788;9.010;2023-03-05T08:12:46;49.73;;;17.67;;
179;SDS011;78;48.788;9.010;2023-03-05T08:15:12;50.60;;;17.97;;
179;SDS011;78;48.788;9.010;2023-03-05T08:17:38;56.50;;;19.57;;
179;SDS011;78;48.788;9.010;2023-03-05T08:20:05;46.77;;;17.37;;
179;SDS011;78;48.788;9.010;2023-03-05T08:22:35;49.67;;;18.33;;
179;SDS011;78;48.788;9.010;2023-03-05T08:25:03;59.43;;;22.27;;
179;SDS011;78;48.788;9.010;2023-03-05T08:27:29;53.73;;;21.37;;
179;SDS011;78;48.788;9.010;2023-03-05T08:29:55;49.43;;;18.67;;
179;SDS011;78;48.788;9.010;2023-03-05T08:32:21;64.50;;;19.90;;
179;SDS011;78;48.788;9.010;2023-03-05T08:34:47;54.63;;;19.33;;
179;SDS011;78;48.788;9.010;2023-03-05T08:37:14;53.97;;;20.07;;
179;SDS011;78;48.788;9.010;2023-03-05T08:39:40;50.93;;;18.97;;
179;SDS011;78;48.788;9.010;2023-03-05T08:42:06;47.70;;;17.53;;
179;SDS011;78;48.788;9.010;2023-03-05T08:44:32;49.27;;;18.33;;
179;SDS011;78;48.788;9.010;2023-03-05T08:46:58;52.23;;;17.50;;
179;SDS011;78;48.788;9.010;2023-03-05T08:49:24;52.67;;;18.53;;
179;SDS011;78;48.788;9.010;2023-03-05T08:51:50;53.00;;;19.30;;
179;SDS011;78;48.788;9.010;2023-03-05T08:54:16;47.50;;;18.30;;
179;SDS011;78;48.788;9.010;2023-03-05T08:56:42;53.70;;;20.30;;
179;SDS011;78;48.788;9.010;2023-03-05T08:59:08;49.43;;;18.43;;
179;SDS011;78;48.788;9.010;2023-03-05T09:01:34;51.90;;;19.00;;
179;SDS011;78;48.788;9.010;2023-03-05T09:04:01;49.97;;;19.10;;
179;SDS011;78;48.788;9.010;2023-03-05T09:06:28;53.13;;;20.47;;
179;SDS011;78;48.788;9.010;2023-03-05T09:08:54;51.70;;;18.53;;
179;SDS011;78;48.788;9.010;2023-03-05T09:11:20;51.17;;;17.33;;
179;SDS011;78;48.788;9.010;2023-03-05T09:13:47;49.63;;;17.50;;
179;SDS011;78;48.788;9.010;2023-03-05T09:16:14;49.80;;;19.70;;
179;SDS011;78;48.788;9.010;2023-03-05T09:18:41;59.00;;;20.23;;
179;SDS011;78;48.788;9.010;2023-03-05T09:21:08;52.20;;;19.13;;
179;SDS011;78;48.788;9.010;2023-03-05T09:23:34;48.10;;;18.73;;
179;SDS011;78;48.788;9.010;2023-03-05T09:26:01;53.70;;;19.47;;
179;SDS011;78;48.788;9.010;2023-03-05T09:28:29;49.13;;;18.60;;
179;SDS011;78;48.788;9.010;2023-03-05T09:30:56;51.60;;;18.80;;
179;SDS011;78;48.788;9.010;2023-03-05T09:33:22;53.93;;;19.30;;
179;SDS011;78;48.788;9.010;2023-03-05T09:35:48;49.97;;;19.20;;
179;SDS011;78;48.788;9.010;2023-03-05T09:38:14;48.50;;;18.63;;
179;SDS011;78;48.788;9.010;2023-03-05T09:40:45;49.10;;;18.13;;
179;SDS011;78;48.788;9.010;2023-03-05T09:51:11;48.83;;;18.03;;
179;SDS011;78;48.788;9.010;2023-03-05T09:53:43;50.17;;;18.40;;
179;SDS011;78;48.788;9.010;2023-03-05T09:56:10;53.53;;;19.37;;
179;SDS011;78;48.788;9.010;2023-03-05T09:58:38;52.90;;;19.23;;
179;SDS011;78;48.788;9.010;2023-03-05T10:01:21;59.60;;;20.27;;
179;SDS011;78;48.788;9.010;2023-03-05T10:03:53;64.20;;;25.73;;
179;SDS011;78;48.788;9.010;2023-03-05T10:06:25;59.10;;;22.27;;
179;SDS011;78;48.788;9.010;2023-03-05T10:08:56;98.20;;;34.90;;
179;SDS011;78;48.788;9.010;2023-03-05T10:13:54;60.07;;;22.80;;
179;SDS011;78;48.788;9.010;2023-03-05T10:16:30;55.17;;;22.33;;
179;SDS011;78;48.788;9.010;2023-03-05T10:19:00;53.57;;;19.60;;
179;SDS011;78;48.788;9.010;2023-03-05T10:21:44;52.67;;;19.87;;
179;SDS011;78;48.788;9.010;2023-03-05T10:26:46;53.80;;;21.17;;
179;SDS011;78;48.788;9.010;2023-03-05T10:46:58;57.37;;;21.93;;
179;SDS011;78;48.788;9.010;2023-03-05T10:49:27;60.60;;;20.43;;
179;SDS011;78;48.788;9.010;2023-03-05T10:52:17;51.57;;;17.80;;
179;SDS011;78;48.788;9.010;2023-03-05T10:54:41;46.83;;;18.00;;
179;SDS011;78;48.788;9.010;2023-03-05T10:57:18;52.63;;;20.47;;
179;SDS011;78;48.788;9.010;2023-03-05T10:59:56;51.33;;;19.47;;
179;SDS011;78;48.788;9.010;2023-03-05T11:02:23;50.37;;;19.37;;
179;SDS011;78;48.788;9.010;2023-03-05T11:04:50;52.33;;;20.20;;
179;SDS011;78;48.788;9.010;2023-03-05T11:09:42;50.43;;;18.70;;
179;SDS011;78;48.788;9.010;2023-03-05T11:12:18;53.13;;;20.70;;
179;SDS011;78;48.788;9.010;2023-03-05T11:17:21;49.50;;;18.93;;
179;SDS011;78;48.788;9.010;2023-03-05T11:19:48;51.57;;;19.57;;
179;SDS011;78;48.788;9.010;2023-03-05T11:22:18;47.57;;;18.10;;
179;SDS011;78;48.788;9.010;2023-03-05T11:25:02;61.73;;;18.13;;
179;SDS011;78;48.788;9.010;2023-03-05T11:27:35;53.63;;;20.13;;
179;SDS011;78;48.788;9.010;2023-03-05T11:30:03;59.57;;;19.33;;
179;SDS011;78;48.788;9.010;2023-03-05T11:32:29;56.97;;;20.13;;
179;SDS011;78;48.788;9.010;2023-03-05T11:34:56;59.00;;;21.20;;
179;SDS011;78;48.788;9.010;2023-03-05T11:37:27;57.10;;;20.17;;
179;SDS011;78;48.788;9.010;2023-03-05T11:40:39;56.73;;;20.00;;
179;SDS011;78;48.788;9.010;2023-03-05T11:42:40;60.80;;;20.50;;
179;SDS011;78;48.788;9.010;2023-03-05T11:45:12;55.27;;;20.13;;
179;SDS011;78;48.788;9.010;2023-03-05T11:50:15;65.17;;;23.10;;
179;SDS011;78;48.788;9.010;2023-03-05T11:52:47;58.00;;;20.80;;
179;SDS011;78;48.788;9.010;2023-03-05T11:55:15;59.83;;;22.73;;
179;SDS011;78;48.788;9.010;2023-03-05T11:57:43;66.53;;;24.20;;
179;SDS011;78;48.788;9.010;2023-03-05T12:02:43;65.60;;;25.50;;
179;SDS011;78;48.788;9.010;2023-03-05T12:05:13;71.40;;;27.50;;
179;SDS011;78;48.788;9.010;2023-03-05T12:07:40;76.60;;;28.10;;
179;SDS011;78;48.788;9.010;2023-03-05T12:10:13;74.30;;;26.97;;
179;SDS011;78;48.788;9.010;2023-03-05T12:12:43;67.43;;;27.77;;
179;SDS011;78;48.788;9.010;2023-03-05T12:18:17;62.27;;;25.13;;
179;SDS011;78;48.788;9.010;2023-03-05T12:23:02;57.83;;;21.00;;
179;SDS011;78;48.788;9.010;2023-03-05T12:27:54;55.53;;;21.20;;
179;SDS011;78;48.788;9.010;2023-03-05T12:32:59;60.43;;;21.50;;
179;SDS011;78;48.788;9.010;2023-03-05T12:35:38;53.57;;;20.37;;
179;SDS011;78;48.788;9.010;2023-03-05T12:38:13;49.60;;;18.73;;
179;SDS011;78;48.788;9.010;2023-03-05T12:40:42;53.30;;;18.33;;
179;SDS011;78;48.788;9.010;2023-03-05T12:43:26;47.80;;;17.53;;
179;SDS011;78;48.788;9.010;2023-03-05T12:45:55;52.57;;;17.90;;
179;SDS011;78;48.788;9.010;2023-03-05T12:48:42;50.37;;;18.10;;
179;SDS011;78;48.788;9.010;2023-03-05T12:51:10;50.00;;;18.40;;
179;SDS011;78;48.788;9.010;2023-03-05T12:53:37;51.73;;;17.87;;
179;SDS011;78;48.788;9.010;2023-03-05T12:56:12;49.47;;;17.60;;
179;SDS011;78;48.788;9.010;2023-03-05T12:58:43;52.43;;;17.77;;
179;SDS011;78;48.788;9.010;2023-03-05T13:03:37;51.70;;;18.03;;
179;SDS011;78;48.788;9.010;2023-03-05T13:06:04;54.50;;;19.17;;
179;SDS011;78;48.788;9.010;2023-03-05T13:08:35;52.07;;;18.33;;
179;SDS011;78;48.788;9.010;2023-03-05T13:13:35;53.77;;;19.77;;
179;SDS011;78;48.788;9.010;2023-03-05T13:16:02;49.70;;;16.67;;
179;SDS011;78;48.788;9.010;2023-03-05T13:18:29;50.10;;;17.20;;
179;SDS011;78;48.788;9.010;2023-03-05T13:21:00;52.87;;;17.70;;
179;SDS011;78;48.788;9.010;2023-03-05T13:23:26;49.63;;;17.40;;
179;SDS011;78;48.788;9.010;2023-03-05T13:25:57;48.73;;;17.40;;
179;SDS011;78;48.788;9.010;2023-03-05T13:28:24;44.70;;;15.90;;
179;SDS011;78;48.788;9.010;2023-03-05T13:30:51;50.90;;;16.37;;
179;SDS011;78;48.788;9.010;2023-03-05T13:33:21;47.23;;;16.57;;
179;SDS011;78;48.788;9.010;2023-03-05T13:35:48;53.33;;;17.17;;
179;SDS011;78;48.788;9.010;2023-03-05T13:38:18;48.60;;;16.57;;
179;SDS011;78;48.788;9.010;2023-03-05T13:40:46;49.70;;;16.87;;
179;SDS011;78;48.788;9.010;2023-03-05T13:43:25;51.77;;;17.80;;
179;SDS011;78;48.788;9.010;2023-03-05T13:45:53;52.20;;;16.80;;
179;SDS011;78;48.788;9.010;2023-03-05T13:48:20;46.70;;;17.43;;
179;SDS011;78;48.788;9.010;2023-03-05T13:50:52;50.17;;;16.63;;
179;SDS011;78;48.788;9.010;2023-03-05T13:53:23;50.33;;;17.00;;
179;SDS011;78;48.788;9.010;2023-03-05T13:55:50;46.87;;;17.10;;
179;SDS011;78;48.788;9.010;2023-03-05T14:01:02;54.40;;;18.70;;
179;SDS011;78;48.788;9.010;2023-03-05T14:03:28;52.00;;;18.67;;
179;SDS011;78;48.788;9.010;2023-03-05T14:05:54;55.67;;;20.53;;
179;SDS011;78;48.788;9.010;2023-03-05T14:08:21;47.57;;;16.83;;
179;SDS011;78;48.788;9.010;2023-03-05T14:10:48;49.83;;;17.63;;
179;SDS011;78;48.788;9.010;2023-03-05T14:13:18;54.70;;;19.63;;
179;SDS011;78;48.788;9.010;2023-03-05T14:18:30;59.53;;;22.33;;
179;SDS011;78;48.788;9.010;2023-03-05T14:20:57;64.50;;;21.80;;
179;SDS011;78;48.788;9.010;2023-03-05T14:29:03;59.33;;;21.30;;
179;SDS011;78;48.788;9.010;2023-03-05T14:31:30;60.57;;;20.77;;
179;SDS011;78;48.788;9.010;2023-03-05T14:34:03;59.60;;;23.87;;
179;SDS011;78;48.788;9.010;2023-03-05T14:36:29;63.73;;;19.17;;
179;SDS011;78;48.788;9.010;2023-03-05T14:38:56;54.13;;;19.27;;
179;SDS011;78;48.788;9.010;2023-03-05T14:41:40;49.10;;;17.93;;
179;SDS011;78;48.788;9.010;2023-03-05T14:44:16;57.63;;;20.80;;
179;SDS011;78;48.788;9.010;2023-03-05T14:46:47;58.07;;;19.30;;
179;SDS011;78;48.788;9.010;2023-03-05T14:49:13;58.13;;;20.67;;
179;SDS011;78;48.788;9.010;2023-03-05T14:51:40;57.07;;;20.27;;
179;SDS011;78;48.788;9.010;2023-03-05T14:54:16;57.30;;;21.20;;
179;SDS011;78;48.788;9.010;2023-03-05T14:56:42;57.90;;;19.07;;
179;SDS011;78;48.788;9.010;2023-03-05T14:59:08;60.33;;;22.50;;
179;SDS011;78;48.788;9.010;2023-03-05T15:01:34;60.03;;;20.97;;
179;SDS011;78;48.788;9.010;2023-03-05T15:04:00;53.13;;;21.03;;
179;SDS011;78;48.788;9.010;2023-03-05T15:06:30;57.17;;;21.83;;
179;SDS011;78;48.788;9.010;2023-03-05T15:08:57;58.77;;;21.97;;
179;SDS011;78;48.788;9.010;2023-03-05T15:11:23;57.67;;;21.40;;
179;SDS011;78;48.788;9.010;2023-03-05T15:13:49;64.30;;;21.40;;
179;SDS011;78;48.788;9.010;2023-03-05T15:16:16;56.93;;;21.10;;
179;SDS011;78;48.788;9.010;2023-03-05T15:18:42;57.00;;;20.10;;
179;SDS011;78;48.788;9.010;2023-03-05T15:21:08;58.33;;;21.27;;
179;SDS011;78;48.788;9.010;2023-03-05T15:23:34;61.00;;;22.20;;
179;SDS011;78;48.788;9.010;2023-03-05T15:26:03;62.77;;;23.00;;
179;SDS011;78;48.788;9.010;2023-03-05T15:28:33;64.90;;;23.10;;
179;SDS011;78;48.788;9.010;2023-03-05T15:31:01;68.77;;;24.40;;
179;SDS011;78;48.788;9.010;2023-03-05T15:33:27;67.00;;;24.73;;
179;SDS011;78;48.788;9.010;2023-03-05T15:35:54;68.60;;;22.03;;
179;SDS011;78;48.788;9.010;2023-03-05T15:38:20;65.13;;;23.40;;
179;SDS011;78;48.788;9.010;2023-03-05T15:40:46;58.20;;;20.67;;
179;SDS011;78;48.788;9.010;2023-03-05T15:43:12;55.60;;;19.27;;
179;SDS011;78;48.788;9.010;2023-03-05T15:45:38;56.33;;;19.60;;
179;SDS011;78;48.788;9.010;2023-03-05T15:48:04;63.03;;;22.30;;
179;SDS011;78;48.788;9.010;2023-03-05T15:50:30;51.20;;;19.93;;
179;SDS011;78;48.788;9.010;2023-03-05T15:52:56;56.13;;;21.80;;
179;SDS011;78;48.788;9.010;2023-03-05T15:55:22;52.60;;;19.00;;
179;SDS011;78;48.788;9.010;2023-03-05T15:57:50;51.53;;;19.47;;
179;SDS011;78;48.788;9.010;2023-03-05T16:00:19;49.00;;;17.20;;
179;SDS011;78;48.788;9.010;2023-03-05T16:02:45;58.60;;;22.87;;
179;SDS011;78;48.788;9.010;2023-03-05T16:05:11;60.50;;;20.27;;
179;SDS011;78;48.788;9.010;2023-03-05T16:07:38;57.17;;;20.63;;
179;SDS011;78;48.788;9.010;2023-03-05T16:10:05;51.83;;;19.67;;
179;SDS011;78;48.788;9.010;2023-03-05T16:12:32;48.73;;;19.63;;
179;SDS011;78;48.788;9.010;2023-03-05T16:15:05;48.47;;;17.70;;
179;SDS011;78;48.788;9.010;2023-03-05T16:17:31;54.60;;;19.70;;
179;SDS011;78;48.788;9.010;2023-03-05T16:19:58;53.90;;;20.07;;
179;SDS011;78;48.788;9.010;2023-03-05T16:22:24;51.27;;;20.07;;
179;SDS011;78;48.788;9.010;2023-03-05T16:24:50;48.93;;;18.57;;
179;SDS011;78;48.788;9.010;2023-03-05T16:27:16;48.57;;;17.67;;
179;SDS011;78;48.788;9.010;2023-03-05T16:29:42;57.10;;;23.20;;
179;SDS011;78;48.788;9.010;2023-03-05T16:32:08;57.00;;;21.30;;
179;SDS011;78;48.788;9.010;2023-03-05T16:34:33;54.90;;;20.30;;
179;SDS011;78;48.788;9.010;2023-03-05T16:37:00;60.43;;;20.87;;
179;SDS011;78;48.788;9.010;2023-03-05T16:39:28;69.73;;;25.20;;
179;SDS011;78;48.788;9.010;2023-03-05T16:41:54;62.47;;;25.30;;
179;SDS011;78;48.788;9.010;2023-03-05T16:44:21;57.43;;;21.37;;